Time;durP1;ratioP1;P1;durP2;ratioP2;P2;SDS_P1;SDS_P2;PMS_P1;PMS_P2;Temp;Humidity;BMP_temperature;BMP_pressure;BME280_temperature;BME280_humidity;BME280_pressure;Samples;Min_cycle;Max_cycle;Signal;HPM_P1;HPM_P2
2021/12/31 11:11:35;;;;;;;15.27;6.73;;;10.80;99.90;;;;;;5145529;27;1234701;-62
2021/12/31 11:14:02;;;;;;;14.20;5.57;;;10.80;99.90;;;;;;5161803;27;20129;-64
2021/12/31 11:16:29;;;;;;;16.95;7.60;;;10.70;99.90;;;;;;5124257;27;20051;-64
2021/12/31 11:18:56;;;;;;;13.18;6.53;;;10.70;99.90;;;;;;5131890;28;20040;-64
2021/12/31 11:21:22;;;;;;;11.65;5.57;;;10.80;99.90;;;;;;5131885;28;20082;-64
2021/12/31 11:23:48;;;;;;;12.23;5.57;;;10.70;99.90;;;;;;5131763;28;20047;-65
2021/12/31 11:26:25;;;;;;;12.27;5.93;;;10.70;99.90;;;;;;5134554;27;20057;-65
2021/12/31 11:28:52;;;;;;;18.20;5.97;;;10.70;99.90;;;;;;5142331;27;20039;-64
2021/12/31 11:31:17;;;;;;;16.60;6.45;;;10.60;99.90;;;;;;5140101;27;20551;-66
2021/12/31 11:33:45;;;;;;;13.13;5.85;;;10.80;99.90;;;;;;5141850;27;20039;-66
2021/12/31 11:36:11;;;;;;;16.38;5.90;;;10.60;99.90;;;;;;5142130;27;20075;-67
2021/12/31 11:38:42;;;;;;;16.75;6.03;;;10.60;99.90;;;;;;5140348;27;20039;-67
2021/12/31 11:41:26;;;;;;;15.23;6.30;;;10.60;99.90;;;;;;5127432;27;20047;-67
2021/12/31 11:44:06;;;;;;;18.13;6.40;;;10.50;99.90;;;;;;5123575;27;20039;-66
2021/12/31 11:46:35;;;;;;;20.20;6.85;;;10.50;99.90;;;;;;5141042;27;20510;-67
2021/12/31 11:49:02;;;;;;;32.70;15.68;;;10.60;99.90;;;;;;5137126;27;20074;-66
2021/12/31 11:51:36;;;;;;;17.00;7.28;;;10.60;99.90;;;;;;5131351;28;20420;-68
2021/12/31 11:54:04;;;;;;;18.75;7.63;;;10.60;99.90;;;;;;5114125;28;20054;-68
2021/12/31 11:56:45;;;;;;;35.17;18.05;;;10.60;99.90;;;;;;5112838;28;20391;-68
2021/12/31 11:59:11;;;;;;;23.40;8.52;;;10.70;99.90;;;;;;5113132;28;20059;-67
2021/12/31 12:01:36;;;;;;;19.05;9.13;;;10.70;99.90;;;;;;5113358;28;20059;-68
2021/12/31 12:04:24;;;;;;;21.58;7.95;;;10.70;99.90;;;;;;5142855;27;20054;-66
2021/12/31 12:06:54;;;;;;;20.55;9.20;;;10.70;99.90;;;;;;5151599;27;20046;-67
2021/12/31 12:09:20;;;;;;;19.50;8.43;;;10.70;99.90;;;;;;5133419;27;20096;-67
2021/12/31 12:12:13;;;;;;;15.07;7.40;;;10.70;99.90;;;;;;5115500;27;20055;-66
2021/12/31 12:14:41;;;;;;;14.40;6.93;;;10.70;99.90;;;;;;5141501;27;20047;-64
2021/12/31 12:17:08;;;;;;;15.20;6.90;;;10.70;99.90;;;;;;5140372;27;20495;-67
2021/12/31 12:19:49;;;;;;;35.83;21.52;;;10.60;99.90;;;;;;5141627;27;20042;-65
2021/12/31 12:22:37;;;;;;;17.30;8.32;;;10.60;99.90;;;;;;5135162;27;20050;-67
2021/12/31 12:25:16;;;;;;;28.67;18.65;;;10.60;99.90;;;;;;5137494;27;20047;-65
2021/12/31 12:27:43;;;;;;;14.95;7.05;;;10.70;99.90;;;;;;5137506;27;20099;-67
2021/12/31 12:30:11;;;;;;;13.90;6.95;;;10.60;99.90;;;;;;5137308;27;20047;-67
2021/12/31 12:32:53;;;;;;;14.43;7.07;;;10.60;99.90;;;;;;5137930;27;20440;-65
2021/12/31 12:35:23;;;;;;;16.60;7.05;;;10.70;99.90;;;;;;5137353;27;20047;-67
2021/12/31 12:38:00;;;;;;;24.77;17.40;;;10.60;99.90;;;;;;5119136;27;20521;-65
2021/12/31 12:40:55;;;;;;;34.75;17.63;;;10.60;99.90;;;;;;5137301;27;20215;-66
2021/12/31 12:43:22;;;;;;;39.03;21.10;;;10.60;99.90;;;;;;5119121;27;20364;-67
2021/12/31 12:45:51;;;;;;;29.85;19.80;;;10.70;99.90;;;;;;5111721;27;20039;-66
2021/12/31 12:48:28;;;;;;;279.65;148.80;;;10.70;99.90;;;;;;5124776;27;20126;-65
2021/12/31 12:50:53;;;;;;;40.72;22.85;;;10.70;99.90;;;;;;5116096;28;20039;-65
2021/12/31 12:53:24;;;;;;;13.85;6.60;;;10.70;99.90;;;;;;5115825;28;20073;-64
2021/12/31 12:56:02;;;;;;;20.42;11.20;;;10.70;99.90;;;;;;5116236;28;20040;-64
2021/12/31 12:58:27;;;;;;;17.05;6.15;;;10.70;99.90;;;;;;5082124;28;20475;-65
2021/12/31 13:00:56;;;;;;;17.13;5.75;;;10.70;99.90;;;;;;5115478;28;20035;-64
2021/12/31 13:03:24;;;;;;;14.90;5.75;;;10.70;99.90;;;;;;5116240;28;20405;-64
2021/12/31 13:06:07;;;;;;;16.63;5.75;;;10.70;99.90;;;;;;5116196;28;20376;-64
2021/12/31 13:08:33;;;;;;;16.40;5.82;;;10.70;99.90;;;;;;5115529;28;20047;-64
2021/12/31 13:11:00;;;;;;;15.45;5.43;;;10.70;99.90;;;;;;5115810;28;20056;-65
2021/12/31 13:13:29;;;;;;;15.27;5.88;;;10.70;99.90;;;;;;5098045;28;20055;-66
2021/12/31 13:15:56;;;;;;;18.25;6.20;;;10.70;99.90;;;;;;5098518;28;20131;-64
2021/12/31 13:18:27;;;;;;;17.23;6.20;;;10.70;99.90;;;;;;5115966;28;20048;-65
2021/12/31 13:21:01;;;;;;;16.98;5.90;;;10.70;99.90;;;;;;5116454;28;20101;-64
2021/12/31 13:23:27;;;;;;;18.92;5.85;;;10.70;99.90;;;;;;5116091;28;20395;-65
2021/12/31 13:25:53;;;;;;;20.23;6.03;;;10.70;99.90;;;;;;5115736;28;20051;-65
2021/12/31 13:28:23;;;;;;;20.13;6.07;;;10.70;99.90;;;;;;5097400;28;20441;-64
2021/12/31 13:30:59;;;;;;;24.30;6.03;;;10.70;99.90;;;;;;5115587;28;20046;-65
2021/12/31 13:33:31;;;;;;;25.33;8.25;;;10.70;99.90;;;;;;5114816;28;20047;-65
2021/12/31 13:36:20;;;;;;;20.85;5.90;;;10.70;99.90;;;;;;5098113;28;20090;-65
2021/12/31 13:39:05;;;;;;;22.75;6.68;;;10.70;99.90;;;;;;5097931;28;20047;-64
2021/12/31 13:41:34;;;;;;;35.15;13.25;;;10.60;99.90;;;;;;5098357;28;20105;-65
2021/12/31 13:44:05;;;;;;;25.85;10.07;;;10.70;99.90;;;;;;5115527;28;20047;-64
2021/12/31 13:46:33;;;;;;;36.05;13.07;;;10.70;99.90;;;;;;5097322;28;20044;-65
2021/12/31 13:49:16;;;;;;;23.75;7.38;;;10.70;99.90;;;;;;5115360;28;20047;-65
2021/12/31 13:51:42;;;;;;;26.27;6.10;;;10.70;99.90;;;;;;5115361;28;20047;-65
2021/12/31 13:54:11;;;;;;;24.63;5.63;;;10.70;99.90;;;;;;5115188;28;20043;-65
2021/12/31 13:56:39;;;;;;;31.33;6.85;;;10.70;99.90;;;;;;5097180;28;20055;-66
2021/12/31 13:59:36;;;;;;;24.30;6.35;;;10.70;99.90;;;;;;5115717;28;20083;-64
2021/12/31 14:02:07;;;;;;;28.92;7.32;;;10.70;99.90;;;;;;5107192;28;20391;-64
2021/12/31 14:04:58;;;;;;;23.08;6.90;;;10.70;99.90;;;;;;5114990;28;20051;-64
2021/12/31 14:07:58;;;;;;;25.77;6.40;;;10.70;99.90;;;;;;5090741;28;20059;-64
2021/12/31 14:10:32;;;;;;;29.42;6.75;;;10.70;99.90;;;;;;5096461;28;20075;-65
2021/12/31 14:13:06;;;;;;;26.85;6.32;;;10.70;99.90;;;;;;5096933;28;20055;-64
2021/12/31 14:15:40;;;;;;;31.48;12.38;;;10.80;99.90;;;;;;5097319;28;20392;-65
2021/12/31 14:18:08;;;;;;;30.92;13.68;;;10.70;99.90;;;;;;5115435;28;20055;-64
2021/12/31 14:20:36;;;;;;;29.15;6.82;;;10.70;99.90;;;;;;5114833;28;20090;-64
2021/12/31 14:23:03;;;;;;;27.75;7.63;;;10.70;99.90;;;;;;5115243;28;20413;-65
2021/12/31 14:25:33;;;;;;;26.65;6.53;;;10.70;99.90;;;;;;5114797;28;20044;-65
2021/12/31 14:28:00;;;;;;;31.15;7.00;;;10.70;99.90;;;;;;5114465;28;20087;-65
2021/12/31 14:30:27;;;;;;;28.40;8.48;;;10.80;99.90;;;;;;5096421;28;20044;-66
2021/12/31 14:32:54;;;;;;;29.52;7.40;;;10.80;99.90;;;;;;5096278;28;20082;-65
2021/12/31 14:35:37;;;;;;;34.15;10.15;;;10.80;99.90;;;;;;5114428;28;20043;-65
2021/12/31 14:38:09;;;;;;;27.65;8.88;;;10.90;99.90;;;;;;5114473;28;20051;-65
2021/12/31 14:40:37;;;;;;;25.77;8.20;;;10.90;99.90;;;;;;5114534;28;20051;-64
2021/12/31 14:43:04;;;;;;;33.20;10.02;;;10.90;99.90;;;;;;5096424;28;20479;-65
2021/12/31 14:45:29;;;;;;;21.80;6.75;;;11.00;99.90;;;;;;5114074;28;20051;-64
2021/12/31 14:47:56;;;;;;;24.42;8.05;;;11.00;99.90;;;;;;5114367;28;20047;-65
2021/12/31 14:50:21;;;;;;;30.20;8.18;;;11.00;99.90;;;;;;5114186;28;20088;-64
2021/12/31 14:52:51;;;;;;;35.15;8.80;;;11.00;99.90;;;;;;5096318;28;20136;-65
2021/12/31 14:55:17;;;;;;;36.75;10.85;;;11.00;99.90;;;;;;5114207;28;20102;-65
2021/12/31 14:57:44;;;;;;;25.40;7.78;;;11.00;99.90;;;;;;5096135;28;20063;-65
2021/12/31 15:00:13;;;;;;;24.52;8.88;;;11.10;99.90;;;;;;5096218;28;20047;-65
2021/12/31 15:02:38;;;;;;;27.98;7.30;;;11.10;99.90;;;;;;5096418;28;20044;-66
2021/12/31 15:05:07;;;;;;;28.90;7.63;;;11.10;99.90;;;;;;5114218;28;20127;-65
2021/12/31 15:07:33;;;;;;;25.67;7.25;;;11.10;99.90;;;;;;5096326;28;20096;-65
2021/12/31 15:09:58;;;;;;;21.85;7.45;;;11.10;99.90;;;;;;5114717;28;20064;-65
2021/12/31 15:12:24;;;;;;;26.02;7.35;;;11.00;99.90;;;;;;5114669;28;20131;-65
2021/12/31 15:14:57;;;;;;;37.35;12.48;;;;;;;;;;5113901;28;20450;-65
2021/12/31 15:17:24;;;;;;;35.70;15.52;;;11.00;99.90;;;;;;5101616;28;20051;-65
2021/12/31 15:19:50;;;;;;;33.78;11.57;;;11.00;99.90;;;;;;5123553;28;20082;-65
2021/12/31 15:22:16;;;;;;;29.40;8.48;;;;;;;;;;5123214;28;20075;-65
2021/12/31 15:24:42;;;;;;;27.95;8.27;;;;;;;;;;5124696;28;20043;-65
2021/12/31 15:27:08;;;;;;;26.95;8.55;;;12.20;99.90;;;;;;5122146;28;20047;-66
2021/12/31 15:29:33;;;;;;;24.20;8.85;;;10.90;99.90;;;;;;5125490;28;20047;-64
2021/12/31 15:31:59;;;;;;;28.50;7.32;;;11.00;99.90;;;;;;5124712;28;21555;-65
2021/12/31 15:34:25;;;;;;;23.38;7.50;;;10.80;99.90;;;;;;5122778;28;20051;-64
2021/12/31 15:36:51;;;;;;;23.55;7.93;;;10.80;99.90;;;;;;5123477;28;20039;-65
2021/12/31 15:39:17;;;;;;;30.27;7.07;;;10.80;99.90;;;;;;5104993;28;20050;-65
2021/12/31 15:41:44;;;;;;;30.67;7.03;;;10.80;99.90;;;;;;5124512;28;20066;-64
2021/12/31 15:44:11;;;;;;;28.50;6.93;;;10.80;99.90;;;;;;5121504;28;20157;-65
2021/12/31 15:46:38;;;;;;;32.45;7.47;;;10.80;99.90;;;;;;5123966;28;20131;-65
2021/12/31 15:49:05;;;;;;;24.80;7.43;;;10.80;99.90;;;;;;5122392;28;20097;-64
2021/12/31 15:51:33;;;;;;;19.88;6.57;;;;;;;;;;5123653;28;20035;-64
2021/12/31 15:53:59;;;;;;;30.65;7.25;;;10.80;99.90;;;;;;5124422;28;20044;-65
2021/12/31 15:56:25;;;;;;;28.52;7.90;;;10.80;99.90;;;;;;5101776;28;20043;-65
2021/12/31 15:58:51;;;;;;;31.58;10.48;;;10.80;99.90;;;;;;5119346;27;20373;-63
2021/12/31 16:01:17;;;;;;;27.13;9.18;;;10.80;99.90;;;;;;5119207;27;20081;-67
2021/12/31 16:03:42;;;;;;;26.60;8.20;;;10.80;99.90;;;;;;5107380;27;20053;-64
2021/12/31 16:06:08;;;;;;;27.70;8.15;;;10.80;99.90;;;;;;5105130;27;20067;-65
2021/12/31 16:08:35;;;;;;;25.65;8.40;;;10.80;99.90;;;;;;5124159;27;20440;-65
2021/12/31 16:11:01;;;;;;;28.52;7.60;;;10.80;99.90;;;;;;5127675;27;20059;-66
2021/12/31 16:13:28;;;;;;;28.35;7.13;;;10.70;99.90;;;;;;5125946;27;20055;-66
2021/12/31 16:15:54;;;;;;;29.77;7.60;;;10.80;99.90;;;;;;5127248;27;20412;-65
2021/12/31 16:18:20;;;;;;;24.73;7.20;;;10.80;99.90;;;;;;5127697;27;20047;-64
2021/12/31 16:20:46;;;;;;;25.20;7.00;;;10.80;99.90;;;;;;5125841;27;20050;-66
2021/12/31 16:23:11;;;;;;;29.45;7.78;;;10.80;99.90;;;;;;5127444;27;20040;-65
2021/12/31 16:25:38;;;;;;;24.17;7.55;;;10.80;99.90;;;;;;5126855;27;20043;-64
2021/12/31 16:28:05;;;;;;;36.95;13.10;;;10.80;99.90;;;;;;5127389;27;20131;-65
2021/12/31 16:30:31;;;;;;;30.17;9.18;;;10.70;99.90;;;;;;5127738;27;20035;-65
2021/12/31 16:32:56;;;;;;;21.13;7.18;;;10.70;99.90;;;;;;5127432;27;20035;-67
2021/12/31 16:35:22;;;;;;;30.10;8.70;;;10.70;99.90;;;;;;5108843;27;20040;-65
2021/12/31 16:37:48;;;;;;;29.77;8.68;;;10.60;99.90;;;;;;5126045;27;20463;-64
2021/12/31 16:40:20;;;;;;;31.77;8.35;;;10.60;99.90;;;;;;5106282;27;20753;-65
2021/12/31 16:42:46;;;;;;;31.73;7.32;;;10.60;99.90;;;;;;5125169;27;20040;-64
2021/12/31 16:45:13;;;;;;;31.23;7.05;;;10.60;99.90;;;;;;5123762;27;20043;-64
2021/12/31 16:47:40;;;;;;;29.38;8.40;;;10.50;99.90;;;;;;5135708;27;20054;-63
2021/12/31 16:50:07;;;;;;;32.17;8.15;;;10.60;99.90;;;;;;5134058;27;20080;-63
2021/12/31 16:52:32;;;;;;;33.75;7.93;;;10.50;99.90;;;;;;5127144;27;20050;-64
2021/12/31 16:55:00;;;;;;;33.08;8.02;;;10.50;99.90;;;;;;5125199;27;20483;-64
2021/12/31 16:57:26;;;;;;;28.85;7.38;;;10.50;99.90;;;;;;5125912;27;20494;-63
2021/12/31 16:59:52;;;;;;;29.27;7.40;;;10.50;99.90;;;;;;5120772;27;20111;-63
2021/12/31 17:02:17;;;;;;;33.80;14.13;;;10.60;99.90;;;;;;5110785;27;20470;-64
2021/12/31 17:04:43;;;;;;;28.02;6.90;;;10.40;99.90;;;;;;5114963;27;20043;-64
2021/12/31 17:07:10;;;;;;;34.35;6.90;;;10.40;99.90;;;;;;5129776;27;20043;-63
2021/12/31 17:09:36;;;;;;;21.95;6.65;;;10.30;99.90;;;;;;5119822;27;20089;-63
2021/12/31 17:12:02;;;;;;;26.45;7.15;;;10.30;99.90;;;;;;5120158;27;20078;-66
2021/12/31 17:14:28;;;;;;;28.30;7.22;;;10.30;99.90;;;;;;5124833;27;20051;-64
2021/12/31 17:16:54;;;;;;;41.30;15.90;;;10.30;99.90;;;;;;5107176;27;20044;-63
2021/12/31 17:19:19;;;;;;;61.95;31.63;;;10.30;99.90;;;;;;5125440;27;20039;-64
2021/12/31 17:21:45;;;;;;;39.25;14.88;;;10.30;99.90;;;;;;5107380;27;20047;-63
2021/12/31 17:24:11;;;;;;;67.43;37.97;;;10.20;99.90;;;;;;5126660;27;20039;-64
2021/12/31 17:26:36;;;;;;;42.75;18.05;;;10.20;99.90;;;;;;5107223;27;20055;-65
2021/12/31 17:29:03;;;;;;;34.58;10.73;;;10.50;99.90;;;;;;5131207;27;20546;-64
2021/12/31 17:31:28;;;;;;;58.08;33.28;;;10.10;99.90;;;;;;5123933;27;20044;-64
2021/12/31 17:33:54;;;;;;;32.75;13.80;;;10.10;99.90;;;;;;5102261;27;20434;-64
2021/12/31 17:36:20;;;;;;;30.05;11.60;;;10.20;99.90;;;;;;5106722;27;20043;-64
2021/12/31 17:38:45;;;;;;;33.45;11.10;;;10.10;99.90;;;;;;5126617;27;20047;-64
2021/12/31 17:41:11;;;;;;;36.72;12.38;;;10.10;99.90;;;;;;5125748;27;20048;-64
2021/12/31 17:43:37;;;;;;;28.98;11.63;;;10.20;99.90;;;;;;5109074;27;20092;-65
2021/12/31 17:46:02;;;;;;;35.90;10.88;;;10.10;99.90;;;;;;5124833;27;20058;-64
2021/12/31 17:48:28;;;;;;;36.63;10.65;;;10.10;99.90;;;;;;5129285;27;20050;-64
2021/12/31 17:50:54;;;;;;;37.55;16.90;;;10.00;99.90;;;;;;5123871;27;20039;-65
2021/12/31 17:53:21;;;;;;;;;;;10.00;99.90;;;;;;5125734;27;20076;-64
2021/12/31 17:55:50;;;;;;;31.83;10.80;;;10.20;99.90;;;;;;5131291;27;20021;-65
2021/12/31 17:58:17;;;;;;;32.00;8.57;;;10.00;99.90;;;;;;5112959;27;20039;-63
2021/12/31 18:00:43;;;;;;;37.10;13.20;;;10.70;99.90;;;;;;5131409;27;20088;-65
2021/12/31 18:03:09;;;;;;;32.80;8.40;;;9.70;99.90;;;;;;5135672;27;20046;-63
2021/12/31 18:05:35;;;;;;;29.10;10.30;;;10.00;99.90;;;;;;5135647;27;20047;-63
2021/12/31 18:08:00;;;;;;;27.05;10.00;;;9.90;99.90;;;;;;5135581;27;20046;-64
2021/12/31 18:10:26;;;;;;;34.40;9.73;;;10.10;99.90;;;;;;5135284;27;20075;-64
2021/12/31 18:12:52;;;;;;;45.85;18.77;;;9.90;99.90;;;;;;5135285;27;20047;-63
2021/12/31 18:15:19;;;;;;;36.90;13.35;;;9.60;99.90;;;;;;5135388;27;20046;-65
2021/12/31 18:17:45;;;;;;;30.20;11.38;;;10.40;99.90;;;;;;5116967;27;20056;-64
2021/12/31 18:20:12;;;;;;;32.97;10.68;;;;;;;;;;5134818;27;20481;-63
2021/12/31 18:22:38;;;;;;;30.77;10.52;;;9.90;99.90;;;;;;5126659;27;20418;-63
2021/12/31 18:25:04;;;;;;;33.25;10.88;;;10.80;99.90;;;;;;5115028;28;20123;-71
2021/12/31 18:27:30;;;;;;;29.55;8.85;;;10.00;99.90;;;;;;5122749;27;20096;-65
2021/12/31 18:29:56;;;;;;;36.20;12.32;;;9.60;99.90;;;;;;5135116;27;20035;-64
2021/12/31 18:32:23;;;;;;;;;;;10.00;99.90;;;;;;5136225;27;20035;-64
2021/12/31 18:34:49;;;;;;;27.05;8.90;;;10.60;99.90;;;;;;5135472;27;19926;-64
2021/12/31 18:37:14;;;;;;;;;;;10.00;99.90;;;;;;5136259;27;20054;-64
2021/12/31 18:39:40;;;;;;;30.77;10.68;;;10.00;99.90;;;;;;5116976;27;19923;-63
2021/12/31 18:42:06;;;;;;;30.85;9.60;;;10.00;99.90;;;;;;5117167;27;20039;-65
2021/12/31 18:44:32;;;;;;;33.45;11.93;;;10.00;99.90;;;;;;5135030;27;20047;-64
2021/12/31 18:47:19;;;;;;;34.47;13.70;;;10.00;99.90;;;;;;5134756;27;20475;-65
2021/12/31 18:49:51;;;;;;;28.73;9.88;;;;;;;;;;5134812;27;20047;-64
2021/12/31 18:52:18;;;;;;;31.48;9.77;;;10.20;99.90;;;;;;5134852;27;20055;-64
2021/12/31 18:54:43;;;;;;;26.02;7.88;;;10.00;99.90;;;;;;5135496;27;20085;-64
2021/12/31 18:57:09;;;;;;;32.03;9.15;;;;;;;;;;5134785;27;20039;-63
2021/12/31 18:59:35;;;;;;;29.73;8.07;;;;;;;;;;5110470;28;20055;-64
2021/12/31 19:02:01;;;;;;;32.28;8.38;;;;;;;;;;5104623;27;20070;-62
2021/12/31 19:04:27;;;;;;;30.40;13.38;;;;;;;;;;5103293;28;20068;-64
2021/12/31 19:06:53;;;;;;;46.63;24.30;;;;;;;;;;5124458;27;20406;-63
2021/12/31 19:09:19;;;;;;;56.47;32.13;;;;;;;;;;5134639;27;20057;-64
2021/12/31 19:11:45;;;;;;;44.38;20.38;;;10.30;99.90;;;;;;5134623;28;20142;-65
2021/12/31 19:14:11;;;;;;;60.75;26.42;;;9.60;99.90;;;;;;5109651;28;20459;-64
2021/12/31 19:16:37;;;;;;;54.85;23.17;;;;;;;;;;5119208;28;20051;-64
2021/12/31 19:19:03;;;;;;;77.72;45.53;;;;;;;;;;5118407;28;20123;-65
2021/12/31 19:21:29;;;;;;;152.93;87.90;;;10.00;99.90;;;;;;5125664;28;20046;-65
2021/12/31 19:23:54;;;;;;;146.25;83.47;;;10.00;99.90;;;;;;5096618;28;20051;-64
2021/12/31 19:26:20;;;;;;;47.22;25.95;;;10.60;99.90;;;;;;5113783;28;20048;-63
2021/12/31 19:28:46;;;;;;;37.42;18.77;;;10.00;99.90;;;;;;5118543;28;20035;-64
2021/12/31 19:31:11;;;;;;;31.40;12.32;;;9.90;99.90;;;;;;5098883;28;20043;-63
2021/12/31 19:33:37;;;;;;;43.13;13.82;;;10.60;99.90;;;;;;5118013;28;20054;-65
2021/12/31 19:36:04;;;;;;;48.22;22.65;;;10.30;99.90;;;;;;5118522;28;20344;-64
2021/12/31 19:38:30;;;;;;;29.98;8.98;;;9.90;99.90;;;;;;5117966;28;20483;-63
2021/12/31 19:40:56;;;;;;;28.15;10.00;;;;;;;;;;5123483;27;20039;-64
2021/12/31 19:43:25;;;;;;;38.10;17.30;;;;;;;;;;5123181;27;20044;-64
2021/12/31 19:45:51;;;;;;;62.78;31.70;;;10.00;99.90;;;;;;5117726;28;20050;-63
2021/12/31 19:48:17;;;;;;;31.60;11.15;;;9.70;99.90;;;;;;5118119;28;20139;-64
2021/12/31 19:50:44;;;;;;;38.35;15.73;;;10.10;99.90;;;;;;5100056;27;20118;-64
2021/12/31 19:53:10;;;;;;;32.25;10.95;;;9.60;99.90;;;;;;5108063;27;20036;-65
2021/12/31 19:55:37;;;;;;;;;;;10.10;99.90;;;;;;5124366;27;20325;-64
2021/12/31 19:58:04;;;;;;;38.08;15.80;;;;;;;;;;5120244;27;19926;-66
2021/12/31 20:00:32;;;;;;;35.60;12.05;;;10.20;99.90;;;;;;5129207;27;20046;-64
2021/12/31 20:02:58;;;;;;;35.47;13.25;;;10.20;99.90;;;;;;5137995;27;20384;-64
2021/12/31 20:05:26;;;;;;;31.13;9.73;;;10.20;99.90;;;;;;5128846;27;20122;-64
2021/12/31 20:07:52;;;;;;;30.73;10.02;;;10.30;99.90;;;;;;5137873;27;20384;-63
2021/12/31 20:10:19;;;;;;;31.63;12.60;;;10.30;99.90;;;;;;5119281;27;20072;-64
2021/12/31 20:12:46;;;;;;;34.20;9.52;;;10.30;99.90;;;;;;5138302;27;20491;-64
2021/12/31 20:15:13;;;;;;;33.00;9.07;;;10.30;99.90;;;;;;5137869;27;20092;-65
2021/12/31 20:17:40;;;;;;;35.00;10.07;;;10.30;99.90;;;;;;5137721;27;20111;-64
2021/12/31 20:20:08;;;;;;;33.17;9.95;;;9.90;99.90;;;;;;5138178;27;20428;-64
2021/12/31 20:22:35;;;;;;;29.08;9.35;;;10.50;99.90;;;;;;5111404;28;20395;-64
2021/12/31 20:25:01;;;;;;;27.30;9.27;;;;;;;;;;5117054;28;20050;-64
2021/12/31 20:27:27;;;;;;;;;;;10.40;99.90;;;;;;5124632;27;20057;-65
2021/12/31 20:29:52;;;;;;;37.13;13.50;;;11.10;99.90;;;;;;5128109;27;20002;-64
2021/12/31 20:32:18;;;;;;;56.15;27.77;;;10.50;99.90;;;;;;5106814;27;20045;-63
2021/12/31 20:34:44;;;;;;;34.50;13.55;;;10.50;99.90;;;;;;5127590;27;20501;-65
2021/12/31 20:37:10;;;;;;;36.70;14.25;;;;;;;;;;5125146;27;20052;-64
2021/12/31 20:39:36;;;;;;;45.90;15.43;;;;;;;;;;5124321;27;20047;-64
2021/12/31 20:42:03;;;;;;;76.20;31.50;;;10.90;99.90;;;;;;5120446;27;20052;-64
2021/12/31 20:44:29;;;;;;;41.58;15.85;;;10.60;99.90;;;;;;5115303;28;20043;-63
2021/12/31 20:46:55;;;;;;;50.38;26.80;;;10.60;99.90;;;;;;5115499;28;20074;-63
2021/12/31 20:49:20;;;;;;;;;;;10.70;99.90;;;;;;5116500;28;20044;-64
2021/12/31 20:51:48;;;;;;;57.38;32.08;;;;;;;;;;5114609;28;19942;-64
2021/12/31 20:54:13;;;;;;;77.55;41.35;;;11.00;99.90;;;;;;5117851;27;20540;-63
2021/12/31 20:56:39;;;;;;;74.90;37.63;;;;;;;;;;5129416;27;20047;-63
2021/12/31 20:59:06;;;;;;;41.42;19.40;;;;;;;;;;5135633;27;20494;-64
2021/12/31 21:01:32;;;;;;;34.35;12.35;;;;;;;;;;5135810;27;20467;-65
2021/12/31 21:03:57;;;;;;;30.52;10.43;;;10.90;99.90;;;;;;5124756;27;20046;-65
2021/12/31 21:06:23;;;;;;;31.65;10.35;;;;;;;;;;5130298;27;20390;-64
2021/12/31 21:08:49;;;;;;;38.22;12.65;;;10.70;99.90;;;;;;5136744;27;20055;-64
2021/12/31 21:11:15;;;;;;;35.55;11.70;;;;;;;;;;5135411;27;20051;-64
2021/12/31 21:13:41;;;;;;;31.30;10.35;;;;;;;;;;5135410;27;20058;-64
2021/12/31 21:16:07;;;;;;;28.08;10.73;;;10.70;99.90;;;;;;5136014;27;20502;-64
2021/12/31 21:18:33;;;;;;;;;;;10.90;99.90;;;;;;5119088;27;20042;-64
2021/12/31 21:20:59;;;;;;;60.13;31.10;;;12.30;99.90;;;;;;5137399;27;19964;-63
2021/12/31 21:23:25;;;;;;;271.35;185.50;;;10.90;99.90;;;;;;5136332;27;20077;-64
2021/12/31 21:25:50;;;;;;;47.92;22.50;;;11.50;99.90;;;;;;5136591;27;20464;-64
2021/12/31 21:28:16;;;;;;;34.78;15.57;;;;;;;;;;5123920;27;20467;-64
2021/12/31 21:30:43;;;;;;;;;;;10.90;99.90;;;;;;5126744;27;20475;-62
2021/12/31 21:33:09;;;;;;;37.95;10.88;;;10.40;99.90;;;;;;5125884;27;19926;-63
2021/12/31 21:35:39;;;;;;;33.75;8.63;;;10.90;99.90;;;;;;5121722;27;20118;-64
2021/12/31 21:38:06;;;;;;;27.45;9.30;;;10.80;99.90;;;;;;5108643;27;20047;-64
2021/12/31 21:40:33;;;;;;;29.48;10.23;;;11.00;99.90;;;;;;5090439;27;20078;-64
2021/12/31 21:42:59;;;;;;;34.60;9.82;;;10.50;99.90;;;;;;5125201;27;20047;-65
2021/12/31 21:45:25;;;;;;;25.13;8.82;;;;;;;;;;5125962;27;20406;-64
2021/12/31 21:47:51;;;;;;;62.85;28.88;;;10.70;99.90;;;;;;5107495;27;20079;-64
2021/12/31 21:50:17;;;;;;;35.08;15.85;;;;;;;;;;5124173;27;20082;-63
2021/12/31 21:52:43;;;;;;;151.95;79.53;;;10.70;99.90;;;;;;5123389;27;20051;-65
2021/12/31 21:55:10;;;;;;;55.03;24.55;;;10.70;99.90;;;;;;5114626;27;20047;-63
2021/12/31 21:57:37;;;;;;;76.15;40.58;;;;;;;;;;5125975;27;20055;-63
2021/12/31 22:00:07;;;;;;;;;;;10.70;99.90;;;;;;5124879;27;20068;-64
2021/12/31 22:02:33;;;;;;;128.60;75.30;;;;;;;;;;5124391;27;19919;-64
2021/12/31 22:04:59;;;;;;;61.33;27.55;;;;;;;;;;5127579;27;20043;-63
2021/12/31 22:07:24;;;;;;;58.13;26.10;;;10.60;99.90;;;;;;5106069;27;20039;-64
2021/12/31 22:09:50;;;;;;;46.10;16.88;;;10.60;99.90;;;;;;5104054;27;20403;-62
2021/12/31 22:12:16;;;;;;;89.22;43.67;;;10.60;99.90;;;;;;5123362;27;20047;-62
2021/12/31 22:14:42;;;;;;;96.00;47.78;;;10.60;99.90;;;;;;5122808;27;20046;-63
2021/12/31 22:17:08;;;;;;;85.38;45.42;;;10.60;99.90;;;;;;5129247;27;20074;-65
2021/12/31 22:19:34;;;;;;;47.22;22.25;;;10.60;99.90;;;;;;5135665;27;20089;-65
2021/12/31 22:22:00;;;;;;;45.97;22.38;;;11.20;99.90;;;;;;5135491;27;20051;-64
2021/12/31 22:24:26;;;;;;;43.08;20.90;;;10.60;99.90;;;;;;5129283;27;20052;-63
2021/12/31 22:26:52;;;;;;;42.58;14.88;;;10.50;99.90;;;;;;5123318;27;20066;-64
2021/12/31 22:29:18;;;;;;;38.00;15.13;;;10.60;99.90;;;;;;5124686;27;20471;-62
2021/12/31 22:31:44;;;;;;;38.80;12.40;;;10.90;99.90;;;;;;5124632;27;20035;-63
2021/12/31 22:34:10;;;;;;;41.47;20.23;;;10.90;99.90;;;;;;5123336;27;20088;-63
2021/12/31 22:36:36;;;;;;;47.03;18.38;;;;;;;;;;5124925;27;20035;-63
2021/12/31 22:39:03;;;;;;;77.30;46.10;;;;;;;;;;5124642;27;20433;-64
2021/12/31 22:41:28;;;;;;;54.45;21.88;;;10.40;99.90;;;;;;5117681;27;20115;-64
2021/12/31 22:43:54;;;;;;;47.20;21.00;;;10.40;99.90;;;;;;5114505;28;20127;-63
2021/12/31 22:46:20;;;;;;;61.90;27.38;;;10.60;99.90;;;;;;5100669;27;20043;-62
2021/12/31 22:48:45;;;;;;;60.67;26.55;;;10.70;99.90;;;;;;5105060;27;20054;-63
2021/12/31 22:51:11;;;;;;;68.40;33.17;;;10.50;99.90;;;;;;5130078;27;20050;-62
2021/12/31 22:53:37;;;;;;;54.78;16.02;;;10.30;99.90;;;;;;5109163;27;20039;-63
2021/12/31 22:56:02;;;;;;;47.40;19.63;;;10.30;99.90;;;;;;5134806;27;20057;-64
2021/12/31 22:58:29;;;;;;;46.83;15.75;;;10.20;99.90;;;;;;5134733;27;20047;-64
2021/12/31 23:00:54;;;;;;;54.63;20.02;;;10.20;99.90;;;;;;5131974;27;20108;-64
2021/12/31 23:03:30;;;;;;;74.65;41.03;;;10.10;99.90;;;;;;5123209;28;20470;-64
2021/12/31 23:05:58;;;;;;;105.25;47.35;;;10.20;99.90;;;;;;5132331;27;20375;-64
2021/12/31 23:08:24;;;;;;;245.88;133.27;;;10.50;99.90;;;;;;5134053;27;20510;-63
2021/12/31 23:10:50;;;;;;;130.48;64.30;;;10.00;99.90;;;;;;5134081;28;20051;-63
2021/12/31 23:13:16;;;;;;;164.50;83.72;;;10.00;99.90;;;;;;5134347;28;20062;-64
2021/12/31 23:15:42;;;;;;;309.25;163.90;;;9.70;99.90;;;;;;5134267;28;20078;-65
2021/12/31 23:18:08;;;;;;;261.50;142.13;;;;;;;;;;5134347;27;20130;-65
2021/12/31 23:20:34;;;;;;;376.00;219.60;;;;;;;;;;5134888;28;20050;-64
2021/12/31 23:23:00;;;;;;;176.88;86.75;;;;;;;;;;5135832;27;20043;-64
2021/12/31 23:25:26;;;;;;;;;;;9.80;99.90;;;;;;5132051;27;20043;-65
2021/12/31 23:27:54;;;;;;;119.28;50.90;;;10.10;99.90;;;;;;5122459;27;20335;-65
2021/12/31 23:30:22;;;;;;;124.82;56.95;;;9.80;99.90;;;;;;5122201;28;20047;-65
2021/12/31 23:32:48;;;;;;;119.57;54.05;;;9.80;99.90;;;;;;5125472;28;20052;-64
2021/12/31 23:35:16;;;;;;;142.27;71.03;;;9.70;99.90;;;;;;5122804;28;20130;-65
2021/12/31 23:37:43;;;;;;;119.13;53.30;;;9.80;99.90;;;;;;5122607;28;20039;-65
2021/12/31 23:40:10;;;;;;;130.65;59.67;;;10.00;99.90;;;;;;5125733;28;20081;-64
2021/12/31 23:42:40;;;;;;;115.30;51.83;;;9.70;99.90;;;;;;5120847;28;20047;-64
2021/12/31 23:45:09;;;;;;;112.75;49.65;;;9.80;99.90;;;;;;5114025;28;20043;-64
